sensor_id;sensor_type;location;lat;lon;timestamp;temperature;humidity
19363;DHT22;9817;50.80926400;5.16316200;2022-08-19T00:01:28;20.40;99.90
19363;DHT22;9817;50.80926400;5.16316200;2022-08-19T00:03:56;20.50;99.90
19363;DHT22;9817;50.80926400;5.16316200;2022-08-19T00:06:21;20.40;99.90
19363;DHT22;9817;50.80926400;5.16316200;2022-08-19T00:08:47;20.40;99.90
19363;DHT22;9817;50.80926400;5.16316200;2022-08-19T00:11:13;20.30;99.90
19363;DHT22;9817;50.80926400;5.16316200;2022-08-19T00:13:38;20.20;99.90
19363;DHT22;9817;50.80926400;5.16316200;2022-08-19T00:16:05;20.10;99.90
19363;DHT22;9817;50.80926400;5.16316200;2022-08-19T00:18:32;20.10;99.90
19363;DHT22;9817;50.80926400;5.16316200;2022-08-19T00:20:58;20.10;99.90
19363;DHT22;9817;50.80926400;5.16316200;2022-08-19T00:23:25;19.90;99.90
19363;DHT22;9817;50.80926400;5.16316200;2022-08-19T00:25:50;19.90;99.90
19363;DHT22;9817;50.80926400;5.16316200;2022-08-19T00:28:17;19.80;99.90
19363;DHT22;9817;50.80926400;5.16316200;2022-08-19T00:30:43;19.90;99.90
19363;DHT22;9817;50.80926400;5.16316200;2022-08-19T00:33:09;19.90;99.90
19363;DHT22;9817;50.80926400;5.16316200;2022-08-19T00:35:35;20.00;99.90
19363;DHT22;9817;50.80926400;5.16316200;2022-08-19T00:38:01;20.00;99.90
19363;DHT22;9817;50.80926400;5.16316200;2022-08-19T00:40:26;20.00;99.90
19363;DHT22;9817;50.80926400;5.16316200;2022-08-19T00:42:52;20.10;99.90
19363;DHT22;9817;50.80926400;5.16316200;2022-08-19T00:45:22;20.00;99.90
19363;DHT22;9817;50.80926400;5.16316200;2022-08-19T00:47:48;19.90;99.90
19363;DHT22;9817;50.80926400;5.16316200;2022-08-19T00:50:17;19.90;99.90
19363;DHT22;9817;50.80926400;5.16316200;2022-08-19T00:52:47;19.90;99.90
19363;DHT22;9817;50.80926400;5.16316200;2022-08-19T00:55:17;19.90;99.90
19363;DHT22;9817;50.80926400;5.16316200;2022-08-19T00:57:48;19.90;99.90
19363;DHT22;9817;50.80926400;5.16316200;2022-08-19T01:00:17;19.90;99.90
19363;DHT22;9817;50.80926400;5.16316200;2022-08-19T01:02:44;19.90;99.90
19363;DHT22;9817;50.80926400;5.16316200;2022-08-19T01:05:13;19.90;99.90
19363;DHT22;9817;50.80926400;5.16316200;2022-08-19T01:07:40;19.90;99.90
19363;DHT22;9817;50.80926400;5.16316200;2022-08-19T01:10:10;19.90;99.90
19363;DHT22;9817;50.80926400;5.16316200;2022-08-19T01:12:37;19.90;99.90
19363;DHT22;9817;50.80926400;5.16316200;2022-08-19T01:15:03;19.80;99.90
19363;DHT22;9817;50.80926400;5.16316200;2022-08-19T01:17:29;19.80;99.90
19363;DHT22;9817;50.80926400;5.16316200;2022-08-19T01:19:55;19.70;99.90
19363;DHT22;9817;50.80926400;5.16316200;2022-08-19T01:24:50;19.70;99.90
19363;DHT22;9817;50.80926400;5.16316200;2022-08-19T01:27:17;19.70;99.90
19363;DHT22;9817;50.80926400;5.16316200;2022-08-19T01:29:44;19.70;99.90
19363;DHT22;9817;50.80926400;5.16316200;2022-08-19T01:32:13;19.80;99.90
19363;DHT22;9817;50.80926400;5.16316200;2022-08-19T01:34:40;19.60;99.90
19363;DHT22;9817;50.80926400;5.16316200;2022-08-19T01:37:08;19.60;99.90
19363;DHT22;9817;50.80926400;5.16316200;2022-08-19T01:39:34;19.50;99.90
19363;DHT22;9817;50.80926400;5.16316200;2022-08-19T01:42:00;19.50;99.90
19363;DHT22;9817;50.80926400;5.16316200;2022-08-19T01:44:28;19.50;99.90
19363;DHT22;9817;50.80926400;5.16316200;2022-08-19T01:46:54;19.50;99.90
19363;DHT22;9817;50.80926400;5.16316200;2022-08-19T01:49:22;19.60;99.90
19363;DHT22;9817;50.80926400;5.16316200;2022-08-19T01:51:49;19.60;99.90
19363;DHT22;9817;50.80926400;5.16316200;2022-08-19T01:54:16;19.60;99.90
19363;DHT22;9817;50.80926400;5.16316200;2022-08-19T01:56:42;19.60;99.90
19363;DHT22;9817;50.80926400;5.16316200;2022-08-19T01:59:17;19.70;99.90
19363;DHT22;9817;50.80926400;5.16316200;2022-08-19T02:01:44;19.70;99.90
19363;DHT22;9817;50.80926400;5.16316200;2022-08-19T02:04:09;19.60;99.90
19363;DHT22;9817;50.80926400;5.16316200;2022-08-19T02:06:35;19.60;99.90
19363;DHT22;9817;50.80926400;5.16316200;2022-08-19T02:09:02;19.60;99.90
19363;DHT22;9817;50.80926400;5.16316200;2022-08-19T02:11:31;19.50;99.90
19363;DHT22;9817;50.80926400;5.16316200;2022-08-19T02:14:03;19.50;99.90
19363;DHT22;9817;50.80926400;5.16316200;2022-08-19T02:16:29;19.60;99.90
19363;DHT22;9817;50.80926400;5.16316200;2022-08-19T02:18:56;19.60;99.90
19363;DHT22;9817;50.80926400;5.16316200;2022-08-19T02:21:23;19.70;99.90
19363;DHT22;9817;50.80926400;5.16316200;2022-08-19T02:23:50;19.70;99.90
19363;DHT22;9817;50.80926400;5.16316200;2022-08-19T02:26:16;19.70;99.90
19363;DHT22;9817;50.80926400;5.16316200;2022-08-19T02:28:42;19.70;99.90
19363;DHT22;9817;50.80926400;5.16316200;2022-08-19T02:31:12;19.70;99.90
19363;DHT22;9817;50.80926400;5.16316200;2022-08-19T02:33:40;19.70;99.90
19363;DHT22;9817;50.80926400;5.16316200;2022-08-19T02:36:07;19.60;99.90
19363;DHT22;9817;50.80926400;5.16316200;2022-08-19T02:38:34;19.60;99.90
19363;DHT22;9817;50.80926400;5.16316200;2022-08-19T02:41:04;19.60;99.90
19363;DHT22;9817;50.80926400;5.16316200;2022-08-19T02:43:32;19.50;99.90
19363;DHT22;9817;50.80926400;5.16316200;2022-08-19T02:46:10;19.40;99.90
19363;DHT22;9817;50.80926400;5.16316200;2022-08-19T02:48:36;19.40;99.90
19363;DHT22;9817;50.80926400;5.16316200;2022-08-19T02:51:02;19.40;99.90
19363;DHT22;9817;50.80926400;5.16316200;2022-08-19T02:53:28;19.40;99.90
19363;DHT22;9817;50.80926400;5.16316200;2022-08-19T02:55:55;19.40;99.90
19363;DHT22;9817;50.80926400;5.16316200;2022-08-19T02:58:21;19.40;99.90
19363;DHT22;9817;50.80926400;5.16316200;2022-08-19T03:00:50;19.30;99.90
19363;DHT22;9817;50.80926400;5.16316200;2022-08-19T03:03:17;19.40;99.90
19363;DHT22;9817;50.80926400;5.16316200;2022-08-19T03:05:43;19.40;99.90
19363;DHT22;9817;50.80926400;5.16316200;2022-08-19T03:08:10;19.40;99.90
19363;DHT22;9817;50.80926400;5.16316200;2022-08-19T03:10:45;19.40;99.90
19363;DHT22;9817;50.80926400;5.16316200;2022-08-19T03:13:14;19.30;99.90
19363;DHT22;9817;50.80926400;5.16316200;2022-08-19T03:15:46;19.30;99.90
19363;DHT22;9817;50.80926400;5.16316200;2022-08-19T03:18:12;19.20;99.90
19363;DHT22;9817;50.80926400;5.16316200;2022-08-19T03:20:47;19.10;99.90
19363;DHT22;9817;50.80926400;5.16316200;2022-08-19T03:23:13;19.10;99.90
19363;DHT22;9817;50.80926400;5.16316200;2022-08-19T03:25:41;19.10;99.90
19363;DHT22;9817;50.80926400;5.16316200;2022-08-19T03:28:10;19.10;99.90
19363;DHT22;9817;50.80926400;5.16316200;2022-08-19T03:30:37;19.10;99.90
19363;DHT22;9817;50.80926400;5.16316200;2022-08-19T03:33:05;19.10;99.90
19363;DHT22;9817;50.80926400;5.16316200;2022-08-19T03:35:30;19.00;99.90
19363;DHT22;9817;50.80926400;5.16316200;2022-08-19T03:37:58;19.00;99.90
19363;DHT22;9817;50.80926400;5.16316200;2022-08-19T03:40:24;18.90;99.90
19363;DHT22;9817;50.80926400;5.16316200;2022-08-19T03:42:50;18.90;99.90
19363;DHT22;9817;50.80926400;5.16316200;2022-08-19T03:45:16;19.00;99.90
19363;DHT22;9817;50.80926400;5.16316200;2022-08-19T03:47:42;19.00;99.90
19363;DHT22;9817;50.80926400;5.16316200;2022-08-19T03:50:08;19.10;99.90
19363;DHT22;9817;50.80926400;5.16316200;2022-08-19T03:52:34;19.10;99.90
19363;DHT22;9817;50.80926400;5.16316200;2022-08-19T03:55:01;19.00;99.90
19363;DHT22;9817;50.80926400;5.16316200;2022-08-19T03:57:27;18.90;99.90
19363;DHT22;9817;50.80926400;5.16316200;2022-08-19T03:59:52;18.90;99.90
19363;DHT22;9817;50.80926400;5.16316200;2022-08-19T04:02:18;18.80;99.90
19363;DHT22;9817;50.80926400;5.16316200;2022-08-19T04:04:44;18.80;99.90
19363;DHT22;9817;50.80926400;5.16316200;2022-08-19T04:07:12;18.80;99.90
19363;DHT22;9817;50.80926400;5.16316200;2022-08-19T04:09:41;18.80;99.90
19363;DHT22;9817;50.80926400;5.16316200;2022-08-19T04:12:07;18.80;99.90
19363;DHT22;9817;50.80926400;5.16316200;2022-08-19T04:14:33;18.80;99.90
19363;DHT22;9817;50.80926400;5.16316200;2022-08-19T04:17:00;18.70;99.90
19363;DHT22;9817;50.80926400;5.16316200;2022-08-19T04:19:29;18.70;99.90
19363;DHT22;9817;50.80926400;5.16316200;2022-08-19T04:21:54;18.70;99.90
19363;DHT22;9817;50.80926400;5.16316200;2022-08-19T04:24:21;18.70;99.90
19363;DHT22;9817;50.80926400;5.16316200;2022-08-19T04:26:48;18.70;99.90
19363;DHT22;9817;50.80926400;5.16316200;2022-08-19T04:29:17;18.60;99.90
19363;DHT22;9817;50.80926400;5.16316200;2022-08-19T04:31:45;18.60;99.90
19363;DHT22;9817;50.80926400;5.16316200;2022-08-19T04:34:12;18.60;99.90
19363;DHT22;9817;50.80926400;5.16316200;2022-08-19T04:36:41;18.60;99.90
19363;DHT22;9817;50.80926400;5.16316200;2022-08-19T04:39:10;18.60;99.90
19363;DHT22;9817;50.80926400;5.16316200;2022-08-19T04:41:36;18.60;99.90
19363;DHT22;9817;50.80926400;5.16316200;2022-08-19T04:44:21;18.70;99.90
19363;DHT22;9817;50.80926400;5.16316200;2022-08-19T04:46:48;18.60;99.90
19363;DHT22;9817;50.80926400;5.16316200;2022-08-19T04:49:15;18.60;99.90
19363;DHT22;9817;50.80926400;5.16316200;2022-08-19T04:51:43;18.60;99.90
19363;DHT22;9817;50.80926400;5.16316200;2022-08-19T04:54:09;18.60;99.90
19363;DHT22;9817;50.80926400;5.16316200;2022-08-19T04:56:35;18.50;99.90
19363;DHT22;9817;50.80926400;5.16316200;2022-08-19T04:59:01;18.50;99.90
19363;DHT22;9817;50.80926400;5.16316200;2022-08-19T05:01:31;18.60;99.90
19363;DHT22;9817;50.80926400;5.16316200;2022-08-19T05:04:00;18.60;99.90
19363;DHT22;9817;50.80926400;5.16316200;2022-08-19T05:06:27;18.60;99.90
19363;DHT22;9817;50.80926400;5.16316200;2022-08-19T05:08:54;18.60;99.90
19363;DHT22;9817;50.80926400;5.16316200;2022-08-19T05:11:23;18.60;99.90
19363;DHT22;9817;50.80926400;5.16316200;2022-08-19T05:13:49;18.50;99.90
19363;DHT22;9817;50.80926400;5.16316200;2022-08-19T05:16:17;18.60;99.90
19363;DHT22;9817;50.80926400;5.16316200;2022-08-19T05:18:44;18.60;99.90
19363;DHT22;9817;50.80926400;5.16316200;2022-08-19T05:21:29;18.70;99.90
19363;DHT22;9817;50.80926400;5.16316200;2022-08-19T05:24:14;18.70;99.90
19363;DHT22;9817;50.80926400;5.16316200;2022-08-19T05:26:42;18.70;99.90
19363;DHT22;9817;50.80926400;5.16316200;2022-08-19T05:29:10;18.70;99.90
19363;DHT22;9817;50.80926400;5.16316200;2022-08-19T05:31:37;18.70;99.90
19363;DHT22;9817;50.80926400;5.16316200;2022-08-19T05:34:04;18.70;99.90
19363;DHT22;9817;50.80926400;5.16316200;2022-08-19T05:36:38;18.80;99.90
19363;DHT22;9817;50.80926400;5.16316200;2022-08-19T05:39:06;19.00;99.90
19363;DHT22;9817;50.80926400;5.16316200;2022-08-19T05:41:32;19.00;99.90
19363;DHT22;9817;50.80926400;5.16316200;2022-08-19T05:44:00;18.90;99.90
19363;DHT22;9817;50.80926400;5.16316200;2022-08-19T05:46:26;18.90;99.90
19363;DHT22;9817;50.80926400;5.16316200;2022-08-19T05:48:52;19.00;99.90
19363;DHT22;9817;50.80926400;5.16316200;2022-08-19T05:51:18;19.10;99.90
19363;DHT22;9817;50.80926400;5.16316200;2022-08-19T05:53:45;19.30;99.90
19363;DHT22;9817;50.80926400;5.16316200;2022-08-19T05:56:16;19.30;99.90
19363;DHT22;9817;50.80926400;5.16316200;2022-08-19T05:58:42;19.50;99.90
19363;DHT22;9817;50.80926400;5.16316200;2022-08-19T06:01:12;19.60;99.90
19363;DHT22;9817;50.80926400;5.16316200;2022-08-19T06:03:38;19.50;99.90
19363;DHT22;9817;50.80926400;5.16316200;2022-08-19T06:06:05;19.40;99.90
19363;DHT22;9817;50.80926400;5.16316200;2022-08-19T06:08:31;19.50;99.90
19363;DHT22;9817;50.80926400;5.16316200;2022-08-19T06:10:58;19.70;99.90
19363;DHT22;9817;50.80926400;5.16316200;2022-08-19T06:13:36;19.70;99.90
19363;DHT22;9817;50.80926400;5.16316200;2022-08-19T06:16:02;19.80;99.90
19363;DHT22;9817;50.80926400;5.16316200;2022-08-19T06:18:27;19.80;99.90
19363;DHT22;9817;50.80926400;5.16316200;2022-08-19T06:20:53;19.90;99.90
19363;DHT22;9817;50.80926400;5.16316200;2022-08-19T06:23:19;20.00;99.90
19363;DHT22;9817;50.80926400;5.16316200;2022-08-19T06:25:45;20.00;99.90
19363;DHT22;9817;50.80926400;5.16316200;2022-08-19T06:28:11;20.00;99.90
19363;DHT22;9817;50.80926400;5.16316200;2022-08-19T06:30:37;20.30;99.90
19363;DHT22;9817;50.80926400;5.16316200;2022-08-19T06:33:02;20.10;99.90
19363;DHT22;9817;50.80926400;5.16316200;2022-08-19T06:35:28;20.20;99.90
19363;DHT22;9817;50.80926400;5.16316200;2022-08-19T06:37:55;20.30;99.90
19363;DHT22;9817;50.80926400;5.16316200;2022-08-19T06:40:20;20.40;99.90
19363;DHT22;9817;50.80926400;5.16316200;2022-08-19T06:42:46;20.70;99.90
19363;DHT22;9817;50.80926400;5.16316200;2022-08-19T06:45:12;21.00;99.90
19363;DHT22;9817;50.80926400;5.16316200;2022-08-19T06:47:37;21.20;99.90
19363;DHT22;9817;50.80926400;5.16316200;2022-08-19T06:50:03;21.40;99.90
19363;DHT22;9817;50.80926400;5.16316200;2022-08-19T06:52:34;21.40;99.90
19363;DHT22;9817;50.80926400;5.16316200;2022-08-19T06:55:01;21.50;99.90
19363;DHT22;9817;50.80926400;5.16316200;2022-08-19T06:57:27;21.40;99.90
19363;DHT22;9817;50.80926400;5.16316200;2022-08-19T06:59:58;21.30;99.90
19363;DHT22;9817;50.80926400;5.16316200;2022-08-19T07:02:25;21.20;99.90
19363;DHT22;9817;50.80926400;5.16316200;2022-08-19T07:04:52;21.00;99.90
19363;DHT22;9817;50.80926400;5.16316200;2022-08-19T07:07:19;21.00;99.90
19363;DHT22;9817;50.80926400;5.16316200;2022-08-19T07:09:45;21.00;99.90
19363;DHT22;9817;50.80926400;5.16316200;2022-08-19T07:12:13;21.00;99.90
19363;DHT22;9817;50.80926400;5.16316200;2022-08-19T07:14:42;21.00;99.90
19363;DHT22;9817;50.80926400;5.16316200;2022-08-19T07:17:10;21.20;99.90
19363;DHT22;9817;50.80926400;5.16316200;2022-08-19T07:19:37;21.30;99.90
19363;DHT22;9817;50.80926400;5.16316200;2022-08-19T07:22:05;21.50;99.90
19363;DHT22;9817;50.80926400;5.16316200;2022-08-19T07:24:31;21.60;99.90
19363;DHT22;9817;50.80926400;5.16316200;2022-08-19T07:26:59;21.70;99.90
19363;DHT22;9817;50.80926400;5.16316200;2022-08-19T07:29:27;21.80;99.90
19363;DHT22;9817;50.80926400;5.16316200;2022-08-19T07:31:54;21.80;99.90
19363;DHT22;9817;50.80926400;5.16316200;2022-08-19T07:34:25;22.00;99.90
19363;DHT22;9817;50.80926400;5.16316200;2022-08-19T07:36:51;22.10;99.90
19363;DHT22;9817;50.80926400;5.16316200;2022-08-19T07:39:22;22.10;99.90
19363;DHT22;9817;50.80926400;5.16316200;2022-08-19T07:41:48;22.40;99.90
19363;DHT22;9817;50.80926400;5.16316200;2022-08-19T07:44:16;22.70;99.90
19363;DHT22;9817;50.80926400;5.16316200;2022-08-19T07:46:45;22.80;99.90
19363;DHT22;9817;50.80926400;5.16316200;2022-08-19T07:49:12;22.90;99.90
19363;DHT22;9817;50.80926400;5.16316200;2022-08-19T07:51:44;23.10;99.90
19363;DHT22;9817;50.80926400;5.16316200;2022-08-19T07:54:10;23.20;99.90
19363;DHT22;9817;50.80926400;5.16316200;2022-08-19T07:56:37;23.40;99.90
19363;DHT22;9817;50.80926400;5.16316200;2022-08-19T07:59:02;23.80;99.90
19363;DHT22;9817;50.80926400;5.16316200;2022-08-19T08:01:28;23.90;99.90
19363;DHT22;9817;50.80926400;5.16316200;2022-08-19T08:03:56;24.70;99.90
19363;DHT22;9817;50.80926400;5.16316200;2022-08-19T08:06:41;25.10;99.90
19363;DHT22;9817;50.80926400;5.16316200;2022-08-19T08:09:31;26.50;99.90
19363;DHT22;9817;50.80926400;5.16316200;2022-08-19T08:12:01;28.00;99.90
19363;DHT22;9817;50.80926400;5.16316200;2022-08-19T08:14:36;28.70;99.90
19363;DHT22;9817;50.80926400;5.16316200;2022-08-19T08:17:04;30.10;99.90
19363;DHT22;9817;50.80926400;5.16316200;2022-08-19T08:19:29;31.30;99.90
19363;DHT22;9817;50.80926400;5.16316200;2022-08-19T08:21:58;30.80;99.90
19363;DHT22;9817;50.80926400;5.16316200;2022-08-19T08:24:25;30.50;99.90
19363;DHT22;9817;50.80926400;5.16316200;2022-08-19T08:26:51;29.80;99.90
19363;DHT22;9817;50.80926400;5.16316200;2022-08-19T08:29:17;29.00;99.90
19363;DHT22;9817;50.80926400;5.16316200;2022-08-19T08:31:44;27.80;99.90
19363;DHT22;9817;50.80926400;5.16316200;2022-08-19T08:34:11;27.30;99.90
19363;DHT22;9817;50.80926400;5.16316200;2022-08-19T08:36:41;26.70;99.90
19363;DHT22;9817;50.80926400;5.16316200;2022-08-19T08:39:10;26.30;99.90
19363;DHT22;9817;50.80926400;5.16316200;2022-08-19T08:41:58;25.60;99.90
19363;DHT22;9817;50.80926400;5.16316200;2022-08-19T08:47:43;29.20;99.90
19363;DHT22;9817;50.80926400;5.16316200;2022-08-19T08:50:19;32.40;99.90
19363;DHT22;9817;50.80926400;5.16316200;2022-08-19T08:52:48;34.30;97.90
19363;DHT22;9817;50.80926400;5.16316200;2022-08-19T08:55:22;35.50;94.30
19363;DHT22;9817;50.80926400;5.16316200;2022-08-19T09:00:22;35.40;91.00
19363;DHT22;9817;50.80926400;5.16316200;2022-08-19T09:02:49;34.00;92.70
19363;DHT22;9817;50.80926400;5.16316200;2022-08-19T09:05:15;33.10;93.60
19363;DHT22;9817;50.80926400;5.16316200;2022-08-19T09:08:00;33.00;93.50
19363;DHT22;9817;50.80926400;5.16316200;2022-08-19T09:10:37;34.00;92.40
19363;DHT22;9817;50.80926400;5.16316200;2022-08-19T09:16:11;36.50;87.30
19363;DHT22;9817;50.80926400;5.16316200;2022-08-19T09:18:49;37.80;82.20
19363;DHT22;9817;50.80926400;5.16316200;2022-08-19T09:21:19;35.20;83.90
19363;DHT22;9817;50.80926400;5.16316200;2022-08-19T09:23:46;33.50;88.30
19363;DHT22;9817;50.80926400;5.16316200;2022-08-19T09:26:14;32.90;91.70
19363;DHT22;9817;50.80926400;5.16316200;2022-08-19T09:28:44;33.40;90.50
19363;DHT22;9817;50.80926400;5.16316200;2022-08-19T09:31:21;33.00;91.00
19363;DHT22;9817;50.80926400;5.16316200;2022-08-19T09:33:48;33.10;91.80
19363;DHT22;9817;50.80926400;5.16316200;2022-08-19T09:36:16;33.30;91.30
19363;DHT22;9817;50.80926400;5.16316200;2022-08-19T09:38:41;33.20;89.60
19363;DHT22;9817;50.80926400;5.16316200;2022-08-19T09:41:13;32.80;90.00
19363;DHT22;9817;50.80926400;5.16316200;2022-08-19T09:43:40;32.40;91.00
19363;DHT22;9817;50.80926400;5.16316200;2022-08-19T09:46:08;32.80;91.00
19363;DHT22;9817;50.80926400;5.16316200;2022-08-19T09:48:35;32.40;91.90
19363;DHT22;9817;50.80926400;5.16316200;2022-08-19T09:51:11;31.70;92.50
19363;DHT22;9817;50.80926400;5.16316200;2022-08-19T09:53:38;31.00;94.20
19363;DHT22;9817;50.80926400;5.16316200;2022-08-19T09:56:05;31.70;93.40
19363;DHT22;9817;50.80926400;5.16316200;2022-08-19T09:58:32;32.00;92.80
19363;DHT22;9817;50.80926400;5.16316200;2022-08-19T10:00:59;32.30;93.80
19363;DHT22;9817;50.80926400;5.16316200;2022-08-19T10:03:26;32.10;92.60
19363;DHT22;9817;50.80926400;5.16316200;2022-08-19T10:05:53;31.80;92.20
19363;DHT22;9817;50.80926400;5.16316200;2022-08-19T10:08:25;31.30;93.50
19363;DHT22;9817;50.80926400;5.16316200;2022-08-19T10:10:51;30.80;94.00
19363;DHT22;9817;50.80926400;5.16316200;2022-08-19T10:13:19;30.50;95.60
19363;DHT22;9817;50.80926400;5.16316200;2022-08-19T10:15:49;29.90;95.70
19363;DHT22;9817;50.80926400;5.16316200;2022-08-19T10:18:17;29.40;97.00
19363;DHT22;9817;50.80926400;5.16316200;2022-08-19T10:20:48;29.30;97.70
19363;DHT22;9817;50.80926400;5.16316200;2022-08-19T10:23:14;29.20;98.20
19363;DHT22;9817;50.80926400;5.16316200;2022-08-19T10:25:43;29.60;98.50
19363;DHT22;9817;50.80926400;5.16316200;2022-08-19T10:28:09;29.40;98.50
19363;DHT22;9817;50.80926400;5.16316200;2022-08-19T10:30:38;29.40;98.40
19363;DHT22;9817;50.80926400;5.16316200;2022-08-19T10:33:05;29.60;98.30
19363;DHT22;9817;50.80926400;5.16316200;2022-08-19T10:35:31;29.90;98.50
19363;DHT22;9817;50.80926400;5.16316200;2022-08-19T10:37:57;30.10;98.80
19363;DHT22;9817;50.80926400;5.16316200;2022-08-19T10:40:28;30.40;98.50
19363;DHT22;9817;50.80926400;5.16316200;2022-08-19T10:42:55;30.50;97.30
19363;DHT22;9817;50.80926400;5.16316200;2022-08-19T10:45:23;30.40;97.10
19363;DHT22;9817;50.80926400;5.16316200;2022-08-19T10:47:54;30.20;97.10
19363;DHT22;9817;50.80926400;5.16316200;2022-08-19T10:50:20;29.90;98.10
19363;DHT22;9817;50.80926400;5.16316200;2022-08-19T10:53:06;30.00;98.90
19363;DHT22;9817;50.80926400;5.16316200;2022-08-19T10:55:34;30.10;99.50
19363;DHT22;9817;50.80926400;5.16316200;2022-08-19T10:58:20;29.60;99.90
19363;DHT22;9817;50.80926400;5.16316200;2022-08-19T11:00:55;29.10;99.90
19363;DHT22;9817;50.80926400;5.16316200;2022-08-19T11:03:22;29.10;99.90
19363;DHT22;9817;50.80926400;5.16316200;2022-08-19T11:05:58;28.70;99.90
19363;DHT22;9817;50.80926400;5.16316200;2022-08-19T11:08:23;28.80;99.90
19363;DHT22;9817;50.80926400;5.16316200;2022-08-19T11:10:54;29.00;99.90
19363;DHT22;9817;50.80926400;5.16316200;2022-08-19T11:13:24;29.10;99.90
19363;DHT22;9817;50.80926400;5.16316200;2022-08-19T11:16:02;29.30;99.90
19363;DHT22;9817;50.80926400;5.16316200;2022-08-19T11:18:28;29.70;99.90
19363;DHT22;9817;50.80926400;5.16316200;2022-08-19T11:20:53;29.40;99.90
19363;DHT22;9817;50.80926400;5.16316200;2022-08-19T11:23:19;29.20;99.90
19363;DHT22;9817;50.80926400;5.16316200;2022-08-19T11:25:45;28.90;99.90
19363;DHT22;9817;50.80926400;5.16316200;2022-08-19T11:28:12;28.70;99.90
19363;DHT22;9817;50.80926400;5.16316200;2022-08-19T11:30:38;28.70;99.90
19363;DHT22;9817;50.80926400;5.16316200;2022-08-19T11:33:04;28.70;99.90
19363;DHT22;9817;50.80926400;5.16316200;2022-08-19T11:35:30;28.70;99.90
19363;DHT22;9817;50.80926400;5.16316200;2022-08-19T11:37:56;29.00;99.90
19363;DHT22;9817;50.80926400;5.16316200;2022-08-19T11:40:26;29.10;99.90
19363;DHT22;9817;50.80926400;5.16316200;2022-08-19T11:42:52;29.20;99.90
19363;DHT22;9817;50.80926400;5.16316200;2022-08-19T11:45:21;29.40;99.90
19363;DHT22;9817;50.80926400;5.16316200;2022-08-19T11:47:47;29.40;99.90
19363;DHT22;9817;50.80926400;5.16316200;2022-08-19T11:50:14;29.50;99.90
19363;DHT22;9817;50.80926400;5.16316200;2022-08-19T11:52:40;29.30;99.90
19363;DHT22;9817;50.80926400;5.16316200;2022-08-19T11:55:06;29.50;99.90
19363;DHT22;9817;50.80926400;5.16316200;2022-08-19T11:57:32;29.60;99.90
19363;DHT22;9817;50.80926400;5.16316200;2022-08-19T11:59:58;29.40;99.90
19363;DHT22;9817;50.80926400;5.16316200;2022-08-19T12:02:24;29.50;99.90
19363;DHT22;9817;50.80926400;5.16316200;2022-08-19T12:04:50;29.50;99.90
19363;DHT22;9817;50.80926400;5.16316200;2022-08-19T12:07:16;29.60;99.90
19363;DHT22;9817;50.80926400;5.16316200;2022-08-19T12:09:42;29.50;99.90
19363;DHT22;9817;50.80926400;5.16316200;2022-08-19T12:12:08;29.20;99.90
19363;DHT22;9817;50.80926400;5.16316200;2022-08-19T12:14:34;29.10;99.90
19363;DHT22;9817;50.80926400;5.16316200;2022-08-19T12:17:00;29.20;99.90
19363;DHT22;9817;50.80926400;5.16316200;2022-08-19T12:19:27;29.10;99.90
19363;DHT22;9817;50.80926400;5.16316200;2022-08-19T12:21:58;29.20;99.90
19363;DHT22;9817;50.80926400;5.16316200;2022-08-19T12:24:25;29.00;99.90
19363;DHT22;9817;50.80926400;5.16316200;2022-08-19T12:26:51;29.00;99.90
19363;DHT22;9817;50.80926400;5.16316200;2022-08-19T12:29:17;29.20;99.90
19363;DHT22;9817;50.80926400;5.16316200;2022-08-19T12:31:43;28.80;99.90
19363;DHT22;9817;50.80926400;5.16316200;2022-08-19T12:34:08;28.80;99.90
19363;DHT22;9817;50.80926400;5.16316200;2022-08-19T12:36:34;28.90;99.90
19363;DHT22;9817;50.80926400;5.16316200;2022-08-19T12:39:00;28.60;99.90
19363;DHT22;9817;50.80926400;5.16316200;2022-08-19T12:41:25;28.60;99.90
19363;DHT22;9817;50.80926400;5.16316200;2022-08-19T12:43:51;28.40;99.90
19363;DHT22;9817;50.80926400;5.16316200;2022-08-19T12:46:18;28.50;99.90
19363;DHT22;9817;50.80926400;5.16316200;2022-08-19T12:48:45;28.80;99.90
19363;DHT22;9817;50.80926400;5.16316200;2022-08-19T12:51:17;28.80;99.90
19363;DHT22;9817;50.80926400;5.16316200;2022-08-19T12:53:44;29.00;99.90
19363;DHT22;9817;50.80926400;5.16316200;2022-08-19T12:56:11;28.50;99.90
19363;DHT22;9817;50.80926400;5.16316200;2022-08-19T12:58:36;28.40;99.90
19363;DHT22;9817;50.80926400;5.16316200;2022-08-19T13:01:13;28.30;99.90
19363;DHT22;9817;50.80926400;5.16316200;2022-08-19T13:03:39;28.30;99.90
19363;DHT22;9817;50.80926400;5.16316200;2022-08-19T13:06:05;28.10;99.90
19363;DHT22;9817;50.80926400;5.16316200;2022-08-19T13:08:31;27.90;99.90
19363;DHT22;9817;50.80926400;5.16316200;2022-08-19T13:10:57;27.80;99.90
19363;DHT22;9817;50.80926400;5.16316200;2022-08-19T13:13:23;27.80;99.90
19363;DHT22;9817;50.80926400;5.16316200;2022-08-19T13:15:50;27.80;99.90
19363;DHT22;9817;50.80926400;5.16316200;2022-08-19T13:18:16;27.90;99.90
19363;DHT22;9817;50.80926400;5.16316200;2022-08-19T13:20:41;27.80;99.90
19363;DHT22;9817;50.80926400;5.16316200;2022-08-19T13:23:08;27.60;99.90
19363;DHT22;9817;50.80926400;5.16316200;2022-08-19T13:25:34;27.50;99.90
19363;DHT22;9817;50.80926400;5.16316200;2022-08-19T13:28:00;27.60;99.90
19363;DHT22;9817;50.80926400;5.16316200;2022-08-19T13:30:25;27.70;99.90
19363;DHT22;9817;50.80926400;5.16316200;2022-08-19T13:33:10;27.80;99.90
19363;DHT22;9817;50.80926400;5.16316200;2022-08-19T13:38:10;27.60;99.90
19363;DHT22;9817;50.80926400;5.16316200;2022-08-19T13:40:37;27.70;99.90
19363;DHT22;9817;50.80926400;5.16316200;2022-08-19T13:43:03;27.90;99.90
19363;DHT22;9817;50.80926400;5.16316200;2022-08-19T13:45:31;28.00;99.90
19363;DHT22;9817;50.80926400;5.16316200;2022-08-19T13:48:04;28.10;99.90
19363;DHT22;9817;50.80926400;5.16316200;2022-08-19T13:50:38;28.30;99.90
19363;DHT22;9817;50.80926400;5.16316200;2022-08-19T13:53:04;28.40;99.90